Comer, Georgia
Current Conditions -  °F | °C
As of 6:51 AM on Saturday 20 Dec 2014 (Local Time) from KAHN Reporting Station
Light Rain Light Rain  
Wind Chill:   Ceiling: 6000
Heat Index:   Visibility: 4mi
Dew Point:   Wind: 0mph
Humidity: 96%   Direction: NA
Pressure: 30.16"   Gusts: NA
Location:  34.06°N, 83.13°W
Report Text: KAHN 201151Z AUTO 00000KT 4SM -RA BR BKN060 BKN075 OVC100 07/06 A3016 RMK AO2 SLP217 P0002 60005 70005 T00670061 10083 20067 53009
Loading
Personal Weather Stations






























Interactive Weather Map New forecast layout! Learn more

10-Day Weather Forecast

Advertisements
Track Severe Weather on mobile